Time;durP1;ratioP1;P1;durP2;ratioP2;P2;SDS_P1;SDS_P2;PMS_P1;PMS_P2;Temp;Humidity;BMP_temperature;BMP_pressure;BME280_temperature;BME280_humidity;BME280_pressure;Samples;Min_cycle;Max_cycle;Signal;HPM_P1;HPM_P2
2023/02/15 00:01:17;;;;;;;50.75;32.70;;;0.90;99.90;;;;;;6162090;23;20023;-89
2023/02/15 00:03:43;;;;;;;56.78;34.95;;;0.80;99.90;;;;;;6162254;23;20028;-89
2023/02/15 00:06:08;;;;;;;42.38;28.70;;;0.80;99.90;;;;;;6187137;23;20096;-89
2023/02/15 00:08:34;;;;;;;147.98;44.08;;;0.80;99.90;;;;;;6186883;23;20009;-89
2023/02/15 00:11:07;;;;;;;205.68;46.63;;;0.80;99.90;;;;;;6161739;23;20017;-89
2023/02/15 00:13:35;;;;;;;256.58;53.85;;;0.80;99.90;;;;;;6161935;23;20009;-89
2023/02/15 00:16:05;;;;;;;120.15;44.97;;;0.80;99.90;;;;;;6187383;23;20013;-89
2023/02/15 00:18:31;;;;;;;70.50;42.20;;;0.90;99.90;;;;;;6187168;23;20093;-89
2023/02/15 00:20:57;;;;;;;62.67;38.03;;;1.00;99.90;;;;;;6187659;23;20021;-89
2023/02/15 00:23:22;;;;;;;58.08;37.55;;;1.00;99.90;;;;;;6188405;23;20013;-89
2023/02/15 00:25:48;;;;;;;63.25;39.08;;;1.00;99.90;;;;;;6187548;23;20019;-89
2023/02/15 00:28:14;;;;;;;57.97;34.92;;;0.90;99.90;;;;;;6187832;23;20096;-89
2023/02/15 00:30:40;;;;;;;56.55;34.33;;;0.80;99.90;;;;;;6163126;23;20013;-89
2023/02/15 00:33:05;;;;;;;52.22;32.67;;;0.80;99.90;;;;;;6188118;23;20020;-88
2023/02/15 00:35:31;;;;;;;48.38;30.88;;;0.50;99.90;;;;;;6189455;23;20013;-89
2023/02/15 00:37:56;;;;;;;49.17;31.30;;;0.50;99.90;;;;;;6162340;23;20020;-89
2023/02/15 00:40:22;;;;;;;42.33;27.77;;;0.40;99.90;;;;;;6186552;23;20013;-90
2023/02/15 00:42:48;;;;;;;44.45;28.95;;;0.40;99.90;;;;;;6161587;23;20017;-90
2023/02/15 00:45:14;;;;;;;47.53;32.95;;;0.40;99.90;;;;;;6161760;23;20059;-89
2023/02/15 00:47:39;;;;;;;44.60;30.08;;;0.40;99.90;;;;;;6186648;23;20009;-89
2023/02/15 00:50:06;;;;;;;43.47;28.77;;;0.50;99.90;;;;;;6186885;23;20051;-89
2023/02/15 00:52:31;;;;;;;40.58;27.52;;;0.50;99.90;;;;;;6186653;23;20059;-89
2023/02/15 00:54:57;;;;;;;40.28;27.65;;;0.40;99.90;;;;;;6161747;23;20048;-88
2023/02/15 00:57:22;;;;;;;39.88;27.45;;;0.30;99.90;;;;;;6187310;23;20116;-89
2023/02/15 00:59:48;;;;;;;34.13;25.83;;;0.50;99.90;;;;;;6188539;23;20017;-89
2023/02/15 01:02:14;;;;;;;42.95;30.00;;;0.60;99.90;;;;;;6186581;23;20009;-89
2023/02/15 01:04:39;;;;;;;38.97;28.15;;;0.60;99.90;;;;;;6187910;23;20334;-89
2023/02/15 01:07:05;;;;;;;39.03;27.70;;;0.60;99.90;;;;;;6186289;23;20017;-89
2023/02/15 01:09:31;;;;;;;41.58;27.13;;;0.50;99.90;;;;;;6161269;23;20013;-88
2023/02/15 01:11:56;;;;;;;47.58;29.67;;;0.50;99.90;;;;;;6186557;23;20093;-89
2023/02/15 01:14:22;;;;;;;52.95;33.58;;;0.50;99.90;;;;;;6186546;23;20056;-88
2023/02/15 01:16:47;;;;;;;57.00;35.72;;;0.40;99.90;;;;;;6161529;23;20005;-88
2023/02/15 01:19:13;;;;;;;45.28;30.58;;;0.30;99.90;;;;;;6186366;23;20089;-88
2023/02/15 01:21:40;;;;;;;43.10;28.27;;;0.30;99.90;;;;;;6165969;23;20392;-88
2023/02/15 01:24:14;;;;;;;40.35;28.05;;;0.30;99.90;;;;;;6186179;23;20087;-88
2023/02/15 01:26:39;;;;;;;35.33;24.88;;;0.40;99.90;;;;;;6161179;23;20013;-87
2023/02/15 01:29:05;;;;;;;33.70;23.27;;;0.10;99.90;;;;;;6187843;23;20096;-88
2023/02/15 01:31:31;;;;;;;33.33;23.52;;;0.00;99.90;;;;;;6187982;23;20493;-88
2023/02/15 01:33:56;;;;;;;33.03;23.48;;;0.00;99.90;;;;;;6186729;23;20009;-88
2023/02/15 01:36:22;;;;;;;32.80;24.08;;;0.00;99.90;;;;;;6187418;23;20016;-88
2023/02/15 01:38:49;;;;;;;28.65;22.27;;;0.00;99.90;;;;;;6187766;23;20016;-88
2023/02/15 01:41:22;;;;;;;41.10;27.90;;;0.00;99.90;;;;;;6186448;23;20093;-88
2023/02/15 01:43:55;;;;;;;37.25;26.05;;;0.10;99.90;;;;;;6185805;23;20018;-88
2023/02/15 01:46:45;;;;;;;35.83;26.63;;;0.20;99.90;;;;;;6161294;23;20056;-88
2023/02/15 01:49:16;;;;;;;35.85;26.48;;;0.30;99.90;;;;;;6186430;23;20005;-88
2023/02/15 01:51:45;;;;;;;35.67;26.45;;;0.40;99.90;;;;;;6186256;23;20048;-88
2023/02/15 01:54:20;;;;;;;33.03;24.92;;;0.40;99.90;;;;;;6161043;23;20070;-88
2023/02/15 01:56:47;;;;;;;35.17;26.50;;;0.40;99.90;;;;;;6187192;23;20009;-88
2023/02/15 01:59:19;;;;;;;37.72;26.33;;;0.40;99.90;;;;;;6161672;23;20443;-88
2023/02/15 02:01:45;;;;;;;32.53;25.05;;;0.40;99.90;;;;;;6186439;23;20021;-88
2023/02/15 02:04:29;;;;;;;32.55;24.77;;;0.40;99.90;;;;;;6186887;23;20016;-88
2023/02/15 02:06:57;;;;;;;38.70;27.50;;;0.30;99.90;;;;;;6186589;23;20012;-87
2023/02/15 02:09:23;;;;;;;43.40;28.50;;;0.20;99.90;;;;;;6189707;23;20017;-87
2023/02/15 02:11:49;;;;;;;45.90;30.90;;;0.10;99.90;;;;;;6164648;23;20017;-88
2023/02/15 02:14:16;;;;;;;40.22;28.27;;;0.20;99.90;;;;;;6189898;23;20346;-88
2023/02/15 02:17:09;;;;;;;37.45;28.30;;;0.30;99.90;;;;;;6186247;23;20406;-88
2023/02/15 02:19:53;;;;;;;40.72;29.35;;;0.20;99.90;;;;;;6186358;23;20032;-88
2023/02/15 02:22:50;;;;;;;40.50;29.23;;;0.10;99.90;;;;;;6186262;23;20081;-87
2023/02/15 02:25:54;;;;;;;38.47;28.05;;;0.10;99.90;;;;;;6186034;23;20020;-88
2023/02/15 02:28:44;;;;;;;40.08;29.85;;;0.10;99.90;;;;;;6087915;23;20044;-88
2023/02/15 02:31:19;;;;;;;36.05;27.65;;;0.10;99.90;;;;;;6191190;23;20013;-87
2023/02/15 02:34:23;;;;;;;37.67;27.70;;;0.20;99.90;;;;;;6188705;23;20077;-87
2023/02/15 02:37:07;;;;;;;36.88;27.33;;;0.10;99.90;;;;;;6143725;23;20051;-87
2023/02/15 02:39:55;;;;;;;39.53;27.67;;;0.00;99.90;;;;;;6186527;23;20013;-88
2023/02/15 02:42:39;;;;;;;46.22;29.50;;;-0.10;99.90;;;;;;6188231;23;20419;-88
2023/02/15 02:45:16;;;;;;;47.90;32.20;;;-0.10;99.90;;;;;;6188159;23;20029;-88
2023/02/15 02:47:52;;;;;;;39.60;28.70;;;0.00;99.90;;;;;;6161194;23;20084;-88
2023/02/15 02:50:24;;;;;;;40.45;28.48;;;-0.10;99.90;;;;;;6185993;23;20454;-88
2023/02/15 02:52:51;;;;;;;41.55;29.92;;;0.00;99.90;;;;;;6185858;23;20020;-88
2023/02/15 02:55:30;;;;;;;35.28;26.33;;;0.10;99.90;;;;;;6161850;23;20052;-87
2023/02/15 02:58:10;;;;;;;30.30;23.08;;;0.00;99.90;;;;;;6185702;23;20016;-87
2023/02/15 03:00:42;;;;;;;31.60;23.05;;;-0.20;99.90;;;;;;6187280;23;20017;-87
2023/02/15 03:03:19;;;;;;;29.98;22.73;;;-0.40;99.90;;;;;;6187245;23;20009;-87
2023/02/15 03:05:47;;;;;;;31.38;22.33;;;-0.60;99.90;;;;;;6187374;23;20013;-88
2023/02/15 03:08:21;;;;;;;34.20;24.73;;;-0.60;99.90;;;;;;6186919;23;20005;-88
2023/02/15 03:10:48;;;;;;;32.67;25.05;;;-0.70;99.90;;;;;;6185374;23;20052;-88
2023/02/15 03:13:15;;;;;;;37.97;26.60;;;-0.60;99.90;;;;;;6186046;23;20036;-87
2023/02/15 03:18:33;;;;;;;35.20;27.45;;;-0.60;99.90;;;;;;6186061;23;20013;-88
2023/02/15 03:21:02;;;;;;;37.47;27.90;;;-0.50;99.90;;;;;;6162709;23;20025;-88
2023/02/15 03:23:30;;;;;;;39.85;28.50;;;-0.50;99.90;;;;;;6188896;23;20013;-88
2023/02/15 03:26:02;;;;;;;37.42;26.27;;;-0.50;99.90;;;;;;6187360;23;20017;-88
2023/02/15 03:28:43;;;;;;;34.75;25.75;;;-0.40;99.90;;;;;;6162258;23;20031;-88
2023/02/15 03:31:11;;;;;;;35.05;26.05;;;-0.40;99.90;;;;;;6186511;23;20021;-88
2023/02/15 03:33:44;;;;;;;38.13;26.30;;;-0.50;99.90;;;;;;6187067;23;20009;-88
2023/02/15 03:36:21;;;;;;;38.15;26.92;;;-0.60;99.90;;;;;;6189848;23;20009;-87
2023/02/15 03:38:59;;;;;;;45.97;28.98;;;-0.60;99.90;;;;;;6189743;23;20012;-88
2023/02/15 03:41:41;;;;;;;41.83;28.60;;;-0.60;99.90;;;;;;6188199;23;20431;-88
2023/02/15 03:44:15;;;;;;;34.25;25.05;;;-0.70;99.90;;;;;;6162303;23;20096;-88
2023/02/15 03:46:52;;;;;;;42.15;27.52;;;-0.70;99.90;;;;;;6187705;23;20017;-88
2023/02/15 03:49:45;;;;;;;41.42;29.00;;;-0.70;99.90;;;;;;6189020;23;20056;-88
2023/02/15 03:52:12;;;;;;;40.25;27.67;;;-0.70;99.90;;;;;;6168163;23;20021;-88
2023/02/15 03:54:43;;;;;;;42.63;28.15;;;-0.70;99.90;;;;;;6162215;23;20017;-88
2023/02/15 04:03:08;;;;;;;38.33;25.95;;;-1.00;99.90;;;;;;6186878;23;20025;-87
2023/02/15 04:05:35;;;;;;;38.05;27.35;;;-1.00;99.90;;;;;;6189181;23;20024;-88
2023/02/15 04:08:01;;;;;;;39.35;27.35;;;-1.00;99.90;;;;;;6189647;23;20017;-88
2023/02/15 04:13:10;;;;;;;39.80;27.83;;;-0.80;99.90;;;;;;6186997;23;20045;-87
2023/02/15 04:18:20;;;;;;;45.28;31.80;;;-1.00;99.90;;;;;;6186656;23;20392;-88
2023/02/15 04:26:15;;;;;;;41.00;29.75;;;-0.90;99.90;;;;;;6189688;23;20017;-88
2023/02/15 04:28:41;;;;;;;40.65;26.98;;;-0.80;99.90;;;;;;6190464;23;20105;-88
2023/02/15 04:31:06;;;;;;;43.42;29.73;;;-0.90;99.90;;;;;;6164433;23;20374;-88
2023/02/15 04:33:32;;;;;;;39.17;27.45;;;-1.00;99.90;;;;;;6189493;23;20060;-87
2023/02/15 04:35:57;;;;;;;43.58;28.25;;;-1.00;99.90;;;;;;6165563;23;20009;-87
2023/02/15 04:38:23;;;;;;;46.13;29.65;;;-1.10;99.90;;;;;;6188804;23;20020;-88
2023/02/15 04:40:52;;;;;;;41.58;28.55;;;-1.20;99.90;;;;;;6189077;23;20442;-87
2023/02/15 04:43:19;;;;;;;47.85;31.90;;;-1.10;99.90;;;;;;6188289;23;20084;-88
2023/02/15 04:45:49;;;;;;;55.03;36.25;;;-1.00;99.90;;;;;;6187164;23;20347;-87
2023/02/15 04:48:16;;;;;;;54.65;33.67;;;-1.10;99.90;;;;;;6162008;23;20044;-88
2023/02/15 04:50:42;;;;;;;68.50;35.60;;;-1.10;99.90;;;;;;6187419;23;20048;-87
2023/02/15 04:53:08;;;;;;;222.15;52.50;;;-1.00;99.90;;;;;;6186795;23;20016;-87
2023/02/15 04:55:34;;;;;;;117.43;45.30;;;-1.10;99.90;;;;;;6161826;23;20017;-88
2023/02/15 04:57:59;;;;;;;365.55;60.95;;;-1.10;99.90;;;;;;6186016;23;20024;-88
2023/02/15 05:00:25;;;;;;;118.85;50.17;;;-0.90;99.90;;;;;;6185693;23;20024;-87
2023/02/15 05:02:50;;;;;;;151.55;53.72;;;-0.90;99.90;;;;;;6161310;23;20013;-87
2023/02/15 05:05:17;;;;;;;103.85;48.83;;;-1.00;99.90;;;;;;6161443;23;20013;-88
2023/02/15 05:07:42;;;;;;;113.45;48.47;;;-0.90;99.90;;;;;;6187579;23;20392;-88
2023/02/15 05:10:08;;;;;;;304.52;57.83;;;-0.90;99.90;;;;;;6161135;23;20351;-88
2023/02/15 05:12:34;;;;;;;112.70;49.15;;;-0.80;99.90;;;;;;6187712;23;20092;-87
2023/02/15 05:14:59;;;;;;;165.88;51.03;;;-0.90;99.90;;;;;;6162365;23;20338;-87
2023/02/15 05:17:25;;;;;;;78.35;40.28;;;-0.90;99.90;;;;;;6186110;23;20020;-88
2023/02/15 05:19:50;;;;;;;60.05;37.15;;;-1.00;99.90;;;;;;6161291;23;20009;-88
2023/02/15 05:22:16;;;;;;;60.47;36.38;;;-0.90;99.90;;;;;;6186188;23;20397;-87
2023/02/15 05:30:11;;;;;;;52.15;34.22;;;-0.90;99.90;;;;;;6187080;23;20051;-88
2023/02/15 05:32:38;;;;;;;46.47;31.73;;;-0.90;99.90;;;;;;6185753;23;20024;-72
2023/02/15 05:35:06;;;;;;;45.30;31.25;;;-0.90;99.90;;;;;;6187149;23;20020;-83
2023/02/15 05:37:31;;;;;;;53.88;34.80;;;-1.00;99.90;;;;;;6185022;23;20334;-83
2023/02/15 05:39:58;;;;;;;47.28;30.77;;;-1.00;99.90;;;;;;6185187;23;20009;-83
2023/02/15 05:42:23;;;;;;;45.08;30.65;;;-1.10;99.90;;;;;;6184831;23;20320;-83
2023/02/15 05:44:49;;;;;;;41.72;29.33;;;-1.20;99.90;;;;;;6160280;23;20076;-83
2023/02/15 05:47:15;;;;;;;61.17;36.63;;;-1.10;99.90;;;;;;6184985;23;20005;-76
2023/02/15 05:49:40;;;;;;;50.55;33.97;;;-1.10;99.90;;;;;;6185357;23;20013;-77
2023/02/15 05:52:06;;;;;;;48.08;33.80;;;-1.10;99.90;;;;;;6160136;23;20013;-83
2023/02/15 05:54:32;;;;;;;58.83;38.22;;;-1.20;99.90;;;;;;6160414;23;20136;-79
2023/02/15 05:56:58;;;;;;;59.00;37.17;;;-1.10;99.90;;;;;;6160493;23;20012;-80
2023/02/15 05:59:23;;;;;;;55.53;36.85;;;-1.20;99.90;;;;;;6160100;23;20024;-81
2023/02/15 06:01:49;;;;;;;59.95;38.55;;;-1.10;99.90;;;;;;6186711;23;20052;-78
2023/02/15 06:04:15;;;;;;;74.95;41.00;;;-1.10;99.90;;;;;;6185439;23;20017;-87
2023/02/15 06:06:40;;;;;;;75.32;39.47;;;-1.10;99.90;;;;;;6160210;23;20020;-86
2023/02/15 06:09:06;;;;;;;57.97;38.03;;;-1.30;99.90;;;;;;6160562;23;20013;-89
2023/02/15 06:11:32;;;;;;;57.53;36.63;;;-1.30;99.90;;;;;;6185976;23;20080;-87
2023/02/15 06:13:57;;;;;;;61.15;37.13;;;-1.30;99.90;;;;;;6185881;23;20013;-77
2023/02/15 06:16:23;;;;;;;53.13;35.28;;;-1.30;99.90;;;;;;6184775;23;20024;-71
2023/02/15 06:18:48;;;;;;;55.20;36.90;;;-1.20;99.90;;;;;;6184690;23;20044;-77
2023/02/15 06:21:14;;;;;;;51.28;35.38;;;-1.30;99.90;;;;;;6160034;23;20036;-77
2023/02/15 06:23:40;;;;;;;49.05;35.33;;;-1.20;99.90;;;;;;6159896;23;20021;-78
2023/02/15 06:26:06;;;;;;;48.05;34.38;;;-1.20;99.90;;;;;;6159788;23;20016;-78
2023/02/15 06:28:31;;;;;;;45.72;32.70;;;-1.10;99.90;;;;;;6184711;23;20021;-78
2023/02/15 06:30:57;;;;;;;42.45;30.15;;;-1.30;99.90;;;;;;6184337;23;20017;-78
2023/02/15 06:33:23;;;;;;;41.28;29.85;;;-1.40;99.90;;;;;;6184617;23;20015;-77
2023/02/15 06:35:48;;;;;;;41.05;29.77;;;-1.50;99.90;;;;;;6186587;23;20024;-78
2023/02/15 06:38:14;;;;;;;40.78;29.77;;;-1.60;99.90;;;;;;6186401;23;20044;-78
2023/02/15 06:40:40;;;;;;;46.45;32.22;;;-1.70;99.90;;;;;;6184580;23;20026;-78
2023/02/15 06:43:05;;;;;;;41.97;30.02;;;-1.70;99.90;;;;;;6186144;23;20088;-78
2023/02/15 06:45:31;;;;;;;43.35;31.50;;;-1.60;99.90;;;;;;6185123;23;20087;-79
2023/02/15 06:47:57;;;;;;;39.95;28.70;;;-1.60;99.90;;;;;;6184598;23;20402;-79
2023/02/15 06:50:22;;;;;;;46.65;31.80;;;-1.60;99.90;;;;;;6186416;23;20024;-80
2023/02/15 06:52:48;;;;;;;39.85;29.45;;;-1.70;99.90;;;;;;6186839;23;20579;-79
2023/02/15 06:55:14;;;;;;;45.08;31.65;;;-1.70;99.90;;;;;;6187001;23;20063;-80
2023/02/15 06:57:40;;;;;;;44.50;30.17;;;-1.70;99.90;;;;;;6186607;23;20476;-80
2023/02/15 07:00:06;;;;;;;45.50;31.05;;;-1.70;99.90;;;;;;6188374;23;20012;-80
2023/02/15 07:02:32;;;;;;;46.28;30.30;;;-1.70;99.90;;;;;;6186582;23;20088;-80
2023/02/15 07:04:57;;;;;;;42.53;30.38;;;-1.70;99.90;;;;;;6186739;23;20434;-78
2023/02/15 07:07:23;;;;;;;44.72;31.77;;;-1.70;99.90;;;;;;6188295;23;20080;-72
2023/02/15 07:09:49;;;;;;;43.85;31.85;;;-1.60;99.90;;;;;;6187870;23;20343;-72
2023/02/15 07:14:59;;;;;;;50.45;33.20;;;-1.60;99.90;;;;;;6187884;23;20025;-72
2023/02/15 07:17:28;;;;;;;45.63;33.05;;;-1.60;99.90;;;;;;6186745;23;20073;-72
2023/02/15 07:19:54;;;;;;;48.67;32.38;;;-1.50;99.90;;;;;;6161592;23;20013;-72
2023/02/15 07:22:19;;;;;;;49.85;34.50;;;-1.40;99.90;;;;;;6186250;23;20021;-72
2023/02/15 07:24:45;;;;;;;52.38;35.95;;;-1.30;99.90;;;;;;6186241;23;20020;-72
2023/02/15 07:27:11;;;;;;;40.40;29.05;;;-1.10;99.90;;;;;;6186174;23;20013;-72
2023/02/15 07:29:36;;;;;;;41.22;29.17;;;-1.10;99.90;;;;;;6185928;23;20013;-72
2023/02/15 07:32:02;;;;;;;50.13;32.22;;;-1.20;99.90;;;;;;6187970;23;20023;-72
2023/02/15 07:34:27;;;;;;;46.30;32.30;;;-1.20;99.90;;;;;;6186178;23;20084;-72
2023/02/15 07:36:53;;;;;;;47.40;34.22;;;-1.20;99.90;;;;;;6187967;23;20036;-72
2023/02/15 07:39:19;;;;;;;51.03;34.45;;;-1.10;99.90;;;;;;6187870;23;20083;-73
2023/02/15 07:41:45;;;;;;;53.92;36.78;;;-1.10;99.90;;;;;;6161114;23;20048;-72
2023/02/15 07:44:13;;;;;;;58.55;38.65;;;-1.00;99.90;;;;;;6187894;23;20017;-72
2023/02/15 07:46:39;;;;;;;58.53;39.25;;;-0.90;99.90;;;;;;6185982;23;20506;-72
2023/02/15 07:49:04;;;;;;;60.78;39.38;;;-0.80;99.90;;;;;;6161184;23;20075;-72
2023/02/15 07:51:30;;;;;;;59.53;39.53;;;-0.70;99.90;;;;;;6161310;23;20021;-72
2023/02/15 07:53:55;;;;;;;60.47;40.80;;;-0.70;99.90;;;;;;6187902;23;20335;-72
2023/02/15 07:56:21;;;;;;;56.63;38.58;;;-0.50;99.90;;;;;;6187771;23;20434;-72
2023/02/15 07:58:52;;;;;;;61.20;40.20;;;-0.40;99.90;;;;;;6187794;23;20019;-72
2023/02/15 08:01:27;;;;;;;61.72;39.78;;;-0.40;99.90;;;;;;6187647;23;20092;-72
2023/02/15 08:03:55;;;;;;;59.90;40.00;;;-0.20;99.90;;;;;;6187650;23;20064;-72
2023/02/15 08:06:23;;;;;;;59.13;40.15;;;-0.20;99.90;;;;;;6187435;23;20024;-71
2023/02/15 08:08:49;;;;;;;71.50;41.60;;;-0.10;99.90;;;;;;6187687;23;20063;-72
2023/02/15 08:11:32;;;;;;;73.25;42.53;;;0.10;99.90;;;;;;6185707;23;20441;-72
2023/02/15 08:14:06;;;;;;;81.15;45.78;;;0.20;99.90;;;;;;6187274;23;20105;-71
2023/02/15 08:16:40;;;;;;;83.20;44.53;;;0.40;99.90;;;;;;6187604;23;20020;-71
2023/02/15 08:19:09;;;;;;;85.35;47.40;;;0.60;99.90;;;;;;6160769;23;20024;-71
2023/02/15 08:21:38;;;;;;;83.55;46.15;;;0.80;99.90;;;;;;6187672;23;20013;-71
2023/02/15 08:24:06;;;;;;;81.38;46.03;;;0.90;99.90;;;;;;6185578;23;20060;-71
2023/02/15 08:26:32;;;;;;;85.43;49.03;;;1.00;99.90;;;;;;6185581;23;20017;-71
2023/02/15 08:28:59;;;;;;;96.30;52.92;;;1.20;99.90;;;;;;6185555;23;20024;-71
2023/02/15 08:31:25;;;;;;;105.30;55.10;;;1.30;99.90;;;;;;6185162;23;20136;-71
2023/02/15 08:33:53;;;;;;;94.70;52.88;;;1.50;99.90;;;;;;6185561;23;20013;-72
2023/02/15 08:36:21;;;;;;;98.55;51.80;;;1.60;99.90;;;;;;6187192;23;20503;-71
2023/02/15 08:38:47;;;;;;;102.07;52.95;;;1.90;99.90;;;;;;6187390;23;20370;-71
2023/02/15 08:41:20;;;;;;;95.30;53.35;;;2.20;99.90;;;;;;6185518;23;20017;-72
2023/02/15 08:43:48;;;;;;;92.13;50.38;;;2.30;99.90;;;;;;6187015;23;20017;-71
2023/02/15 08:46:15;;;;;;;91.68;51.78;;;2.50;99.90;;;;;;6186959;23;20019;-71
2023/02/15 08:48:41;;;;;;;88.82;49.67;;;2.40;99.90;;;;;;6185396;23;20021;-72
2023/02/15 08:51:15;;;;;;;84.88;49.85;;;2.60;99.90;;;;;;6185613;23;20088;-72
2023/02/15 08:53:44;;;;;;;81.93;47.63;;;2.60;99.90;;;;;;6185312;23;20016;-72
2023/02/15 08:56:10;;;;;;;81.55;48.28;;;2.90;99.90;;;;;;6185458;23;20009;-71
2023/02/15 08:58:37;;;;;;;80.07;47.53;;;2.80;99.90;;;;;;6160458;23;20041;-71
2023/02/15 09:01:17;;;;;;;79.85;46.60;;;3.00;99.90;;;;;;6187377;23;20335;-71
2023/02/15 09:03:44;;;;;;;76.22;46.55;;;3.10;99.90;;;;;;6187458;23;20013;-71
2023/02/15 09:06:10;;;;;;;79.40;46.13;;;3.10;99.90;;;;;;6187548;23;20028;-71
2023/02/15 09:08:37;;;;;;;80.07;48.08;;;3.30;99.90;;;;;;6187288;23;20016;-71
2023/02/15 09:11:27;;;;;;;76.28;45.38;;;3.40;99.90;;;;;;6185253;23;20017;-73
2023/02/15 09:13:55;;;;;;;77.38;46.20;;;3.50;99.90;;;;;;6172222;23;20489;-71
2023/02/15 09:16:23;;;;;;;77.07;45.85;;;3.50;99.90;;;;;;6185053;23;20013;-72
2023/02/15 09:18:50;;;;;;;77.93;47.05;;;3.60;99.90;;;;;;6186977;23;20040;-72
2023/02/15 09:21:18;;;;;;;71.75;45.72;;;3.80;99.90;;;;;;6185229;23;20017;-72
2023/02/15 09:23:46;;;;;;;82.45;47.72;;;3.70;99.90;;;;;;6160284;23;20020;-72
2023/02/15 09:26:19;;;;;;;70.53;43.55;;;3.90;99.90;;;;;;6185032;23;20009;-72
2023/02/15 09:28:45;;;;;;;74.78;44.58;;;4.00;99.90;;;;;;6186692;23;20020;-72
2023/02/15 09:31:18;;;;;;;79.25;47.40;;;4.10;99.90;;;;;;6184723;23;20021;-72
2023/02/15 09:33:45;;;;;;;69.35;43.88;;;4.10;99.90;;;;;;6186792;23;20036;-71
2023/02/15 09:36:21;;;;;;;69.95;45.92;;;4.20;99.90;;;;;;6184987;23;20335;-71
2023/02/15 09:38:53;;;;;;;72.10;45.38;;;4.30;99.90;;;;;;6186772;23;20048;-71
2023/02/15 09:41:47;;;;;;;74.60;45.75;;;4.40;99.90;;;;;;6186883;23;20345;-71
2023/02/15 09:44:28;;;;;;;75.90;46.92;;;4.60;99.90;;;;;;6186860;23;20068;-71
2023/02/15 09:47:05;;;;;;;85.93;49.10;;;4.50;99.90;;;;;;6186832;23;20013;-71
2023/02/15 09:49:42;;;;;;;69.20;43.47;;;4.70;99.90;;;;;;6186793;23;20024;-72
2023/02/15 09:52:47;;;;;;;74.57;47.75;;;4.80;99.90;;;;;;6186935;23;20013;-71
2023/02/15 09:55:21;;;;;;;70.95;45.47;;;5.00;99.90;;;;;;6186363;23;20047;-72
2023/02/15 09:58:13;;;;;;;69.45;44.40;;;5.10;99.90;;;;;;6184724;23;20005;-71
2023/02/15 10:01:00;;;;;;;69.05;44.13;;;5.20;99.90;;;;;;6186681;23;20020;-72
2023/02/15 10:03:34;;;;;;;64.13;42.83;;;5.30;99.90;;;;;;6184780;23;20024;-72
2023/02/15 10:06:43;;;;;;;66.95;42.55;;;5.50;99.90;;;;;;6186661;23;20013;-72
2023/02/15 10:09:24;;;;;;;62.72;41.15;;;5.60;99.90;;;;;;6186244;23;20505;-72
2023/02/15 10:12:12;;;;;;;65.68;42.50;;;5.90;99.90;;;;;;6184990;23;20144;-72
2023/02/15 10:14:52;;;;;;;62.42;40.60;;;6.00;99.90;;;;;;6184662;23;20013;-72
2023/02/15 10:17:40;;;;;;;62.75;41.83;;;6.10;99.90;;;;;;6160845;23;20013;-72
2023/02/15 10:20:07;;;;;;;61.35;40.35;;;6.20;99.90;;;;;;6184764;23;20092;-72
2023/02/15 10:22:56;;;;;;;59.65;40.25;;;6.20;99.90;;;;;;6186413;23;20339;-72
2023/02/15 10:25:25;;;;;;;60.55;39.53;;;6.20;99.90;;;;;;6184630;23;20024;-72
2023/02/15 10:27:51;;;;;;;63.67;42.58;;;6.40;99.90;;;;;;6186162;23;20373;-72
2023/02/15 10:30:42;;;;;;;62.17;40.88;;;6.50;99.90;;;;;;6185506;23;20041;-72
2023/02/15 10:33:31;;;;;;;58.25;39.13;;;6.60;99.90;;;;;;6172638;23;20088;-72
2023/02/15 10:36:35;;;;;;;64.95;43.88;;;6.60;99.90;;;;;;6186656;23;20016;-72
2023/02/15 10:39:10;;;;;;;65.30;42.58;;;6.60;99.90;;;;;;6140984;23;20013;-72
2023/02/15 10:41:45;;;;;;;63.15;42.55;;;6.80;99.90;;;;;;6184600;23;20024;-72
2023/02/15 10:44:21;;;;;;;60.03;41.53;;;6.90;99.90;;;;;;6184512;23;20024;-72
2023/02/15 10:47:24;;;;;;;64.22;42.92;;;6.90;99.90;;;;;;6186475;23;20084;-72
2023/02/15 10:49:59;;;;;;;63.50;43.72;;;7.00;99.90;;;;;;6184353;23;20100;-72
2023/02/15 10:52:46;;;;;;;65.50;42.72;;;7.10;99.90;;;;;;6159689;23;20024;-72
2023/02/15 10:55:42;;;;;;;60.85;40.75;;;7.10;99.90;;;;;;6185957;23;20450;-72
2023/02/15 10:58:17;;;;;;;58.45;39.58;;;7.20;99.90;;;;;;6184756;23;20013;-72
2023/02/15 11:01:04;;;;;;;54.10;38.65;;;7.30;99.90;;;;;;6186272;23;20024;-72
2023/02/15 11:03:54;;;;;;;63.55;42.25;;;7.40;99.90;;;;;;6186334;23;20382;-72
2023/02/15 11:06:22;;;;;;;59.10;40.53;;;7.40;99.90;;;;;;6186091;23;20494;-72
2023/02/15 11:08:57;;;;;;;59.13;40.30;;;7.50;99.90;;;;;;6186174;23;20310;-72
2023/02/15 11:11:40;;;;;;;58.17;42.50;;;7.50;99.90;;;;;;6186249;23;20009;-72
2023/02/15 11:14:31;;;;;;;59.85;41.58;;;7.60;99.90;;;;;;6184578;23;20017;-72
2023/02/15 11:17:02;;;;;;;61.17;38.95;;;7.80;99.90;;;;;;6184964;23;20084;-72
2023/02/15 11:19:36;;;;;;;57.17;39.45;;;7.90;99.90;;;;;;6186301;23;20011;-72
2023/02/15 11:22:05;;;;;;;55.20;37.90;;;8.10;99.90;;;;;;6186587;23;20334;-71
2023/02/15 11:24:35;;;;;;;53.67;36.75;;;8.20;99.90;;;;;;6186277;23;20009;-71
2023/02/15 11:27:14;;;;;;;60.58;40.72;;;8.20;99.90;;;;;;6184434;23;20017;-71
2023/02/15 11:29:55;;;;;;;59.45;38.75;;;8.30;99.90;;;;;;6185807;23;20017;-71
2023/02/15 11:32:34;;;;;;;51.38;35.40;;;8.40;99.90;;;;;;6185984;23;20024;-71
2023/02/15 11:35:09;;;;;;;56.90;38.53;;;8.60;99.90;;;;;;6184719;23;20037;-72
2023/02/15 11:37:45;;;;;;;54.90;37.55;;;8.70;99.90;;;;;;6184486;23;20722;-72
2023/02/15 11:40:21;;;;;;;51.25;35.95;;;8.80;99.90;;;;;;6184862;23;20013;-72
2023/02/15 11:42:49;;;;;;;51.65;36.40;;;8.90;99.90;;;;;;6186187;23;20044;-72
2023/02/15 11:45:34;;;;;;;53.42;35.95;;;9.10;99.90;;;;;;6187882;23;20339;-72
2023/02/15 11:48:08;;;;;;;54.30;36.67;;;9.40;99.90;;;;;;6187764;23;20013;-71
2023/02/15 11:50:34;;;;;;;54.05;35.15;;;9.50;99.90;;;;;;6187900;23;20390;-71
2023/02/15 11:53:04;;;;;;;54.13;36.83;;;9.60;99.90;;;;;;6161094;23;20017;-71
2023/02/15 11:55:30;;;;;;;56.15;36.60;;;9.70;99.90;;;;;;6187425;23;20111;-71
2023/02/15 11:58:28;;;;;;;55.20;36.92;;;9.80;99.90;;;;;;6187653;23;20083;-72
2023/02/15 12:01:00;;;;;;;57.75;36.45;;;9.90;99.90;;;;;;6187677;23;20016;-72
2023/02/15 12:03:44;;;;;;;51.58;35.50;;;10.00;99.90;;;;;;6188421;23;20461;-71
2023/02/15 12:06:16;;;;;;;53.33;37.10;;;10.00;99.90;;;;;;6186398;23;20013;-72
2023/02/15 12:08:49;;;;;;;54.72;38.45;;;10.30;99.90;;;;;;6185711;23;20019;-72
2023/02/15 12:11:39;;;;;;;58.35;38.95;;;10.30;99.90;;;;;;6185614;23;20505;-71
2023/02/15 12:14:06;;;;;;;55.45;37.17;;;10.40;99.90;;;;;;6168206;23;20076;-71
2023/02/15 12:16:54;;;;;;;53.00;37.33;;;10.40;99.90;;;;;;6187510;23;20009;-71
2023/02/15 12:19:31;;;;;;;56.03;38.70;;;10.50;99.90;;;;;;6187210;23;20016;-70
2023/02/15 12:21:57;;;;;;;53.13;37.08;;;10.60;99.90;;;;;;6185886;23;20084;-70
2023/02/15 12:24:45;;;;;;;58.30;39.45;;;10.60;99.90;;;;;;6187202;23;20041;-71
2023/02/15 12:27:16;;;;;;;53.90;38.13;;;10.60;99.90;;;;;;6185644;23;20021;-71
2023/02/15 12:29:45;;;;;;;58.47;39.00;;;10.60;99.90;;;;;;6187342;23;20017;-72
2023/02/15 12:32:18;;;;;;;59.38;37.83;;;10.70;99.90;;;;;;6187262;23;20025;-72
2023/02/15 12:34:46;;;;;;;53.13;36.25;;;10.80;99.90;;;;;;6185658;23;20017;-72
2023/02/15 12:37:19;;;;;;;53.08;36.95;;;10.90;99.90;;;;;;6185606;23;20043;-73
2023/02/15 12:40:00;;;;;;;54.30;38.38;;;11.00;99.90;;;;;;6185634;23;20079;-72
2023/02/15 12:42:28;;;;;;;52.25;36.80;;;11.00;99.90;;;;;;6185716;23;20053;-77
2023/02/15 12:45:03;;;;;;;54.50;38.58;;;11.20;99.90;;;;;;6185448;23;20017;-71
2023/02/15 12:47:31;;;;;;;52.30;36.35;;;11.20;99.90;;;;;;6187235;23;20047;-71
2023/02/15 12:50:25;;;;;;;52.20;36.15;;;11.20;99.90;;;;;;6187055;23;20017;-71
2023/02/15 12:53:19;;;;;;;52.45;36.42;;;11.40;99.90;;;;;;6187772;23;20025;-71
2023/02/15 12:56:06;;;;;;;52.60;34.20;;;11.40;99.90;;;;;;6185734;23;20009;-71
2023/02/15 12:58:41;;;;;;;52.75;35.47;;;11.40;99.90;;;;;;6185222;23;20020;-71
2023/02/15 13:01:17;;;;;;;58.63;38.42;;;11.40;99.90;;;;;;6185174;23;20027;-71
2023/02/15 13:04:05;;;;;;;51.08;34.33;;;11.50;99.90;;;;;;6185587;23;20032;-71
2023/02/15 13:06:34;;;;;;;49.10;33.15;;;11.50;99.90;;;;;;6185295;23;20017;-71
2023/02/15 13:09:16;;;;;;;46.53;32.42;;;11.80;99.90;;;;;;6185147;23;20435;-71
2023/02/15 13:11:44;;;;;;;47.38;31.17;;;12.30;99.90;;;;;;6185117;23;20080;-71
2023/02/15 13:14:19;;;;;;;46.67;30.67;;;12.70;99.90;;;;;;6185062;23;20056;-71
2023/02/15 13:16:48;;;;;;;48.22;30.50;;;12.90;99.90;;;;;;6185213;23;20020;-71
2023/02/15 13:19:34;;;;;;;43.00;29.33;;;13.20;99.90;;;;;;6187015;23;20005;-71
2023/02/15 13:22:14;;;;;;;44.42;30.65;;;13.20;99.90;;;;;;6187240;23;20017;-71